Patrice — VKN6053 — position and weather

sailwx.info

Track history (hours):
 
Tides and Currents Weather Stations Pressure Air Temp Water Temp Dewpoint Dewpoint Depression Visibility Wind Speed Wind Dir Waves Ship Positions

Patrice

Last reported at 2015-Jan-06 18:10 UTC. Time now 2015-Mar-26 19:12 UTC.
Position S 36°20' E 150°31'.
Warning: this ship's position is months out of date.

Length 15 m.

MMSI: 503659300.

Date/timePositionNaut miles runAvg speedWind from/ knotsBaromVisibWave heightAir tempDewpointWater temp
2015-Jan-06 18:10S 36°20' E 150°31'5 7.3
2015-Jan-06 17:24S 36°25' E 150°28'6 7.0
2015-Jan-06 16:30S 36°31' E 150°24'41 5.9
2015-Jan-06 09:27S 37°05' E 149°55'0 0.4
2015-Jan-06 08:29S 37°04' E 149°54'0 0.0
2015-Jan-06 07:32S 37°04' E 149°54'0 0.0
2015-Jan-06 06:32S 37°04' E 149°54'  
2015-Jan-03 19:10S 43°15' E 147°48'5 7.2
2015-Jan-03 18:31S 43°14' E 147°42'24 5.8
2015-Jan-03 14:28S 42°56' E 147°22'2 2.1
2015-Jan-03 13:20S 42°54' E 147°20'3 0.1
2015-Jan-02 11:30S 42°56' E 147°22'3 0.5
2015-Jan-02 06:33S 42°54' E 147°20'0 0.0
2015-Jan-02 05:21S 42°54' E 147°20'3 3.4
2015-Jan-02 04:24S 42°56' E 147°23'1 1.0
2015-Jan-02 03:30S 42°55' E 147°22'1 1.3
2015-Jan-02 02:31S 42°54' E 147°22'1 1.4
2015-Jan-02 01:32S 42°54' E 147°20'0 0.0
2015-Jan-02 00:28S 42°54' E 147°20'0 0.0
2015-Jan-01 23:23S 42°54' E 147°20'0 0.0
2015-Jan-01 22:29S 42°54' E 147°20'0 0.0
2015-Jan-01 21:32S 42°54' E 147°20'0 0.0
2015-Jan-01 03:22S 42°54' E 147°20'1 0.0
2014-Dec-30 06:25S 42°53' E 147°20'0 0.0
2014-Dec-30 05:32S 42°53' E 147°20'0 0.0
2014-Dec-30 01:22S 42°53' E 147°20'0 0.0
2014-Dec-30 00:28S 42°53' E 147°20'0 0.0
2014-Dec-29 23:22S 42°53' E 147°20'0 0.0
2014-Dec-29 22:25S 42°53' E 147°20'0 0.0
2014-Dec-29 21:28S 42°53' E 147°20'0 0.0
2014-Dec-29 01:09S 42°53' E 147°20'0 0.0
2014-Dec-29 00:27S 42°53' E 147°20'0 0.0
2014-Dec-28 23:29S 42°53' E 147°20'0 0.0
2014-Dec-28 22:32S 42°53' E 147°20'0 0.0
2014-Dec-28 21:31S 42°53' E 147°20'0 0.3
2014-Dec-28 20:33S 42°53' E 147°20'7 6.3
2014-Dec-28 19:29S 42°59' E 147°23'8 8.1
2014-Dec-28 18:32S 43°06' E 147°29'10 9.7
2014-Dec-28 17:29S 43°13' E 147°39'9 8.5
2014-Dec-28 16:24S 43°17' E 147°51'3210.5
2014-Dec-28 13:22S 42°51' E 148°17'  
Track history (hours):
 
Tides and Currents Weather Stations Pressure Air Temp Water Temp Dewpoint Dewpoint Depression Visibility Wind Speed Wind Dir Waves Ship Positions

Patrice

Last reported at 2015-Jan-06 18:10 UTC. Time now 2015-Mar-26 19:12 UTC.
Position S 36°20' E 150°31'.
Warning: this ship's position is months out of date.

Length 15 m.

MMSI: 503659300.

Date/timePositionNaut miles runAvg speedWind from/ knotsBaromVisibWave heightAir tempDewpointWater temp
2015-Jan-06 18:10S 36°20' E 150°31'5 7.3
2015-Jan-06 17:24S 36°25' E 150°28'6 7.0
2015-Jan-06 16:30S 36°31' E 150°24'41 5.9
2015-Jan-06 09:27S 37°05' E 149°55'0 0.4
2015-Jan-06 08:29S 37°04' E 149°54'0 0.0
2015-Jan-06 07:32S 37°04' E 149°54'0 0.0
2015-Jan-06 06:32S 37°04' E 149°54'  
2015-Jan-03 19:10S 43°15' E 147°48'5 7.2
2015-Jan-03 18:31S 43°14' E 147°42'24 5.8
2015-Jan-03 14:28S 42°56' E 147°22'2 2.1
2015-Jan-03 13:20S 42°54' E 147°20'3 0.1
2015-Jan-02 11:30S 42°56' E 147°22'3 0.5
2015-Jan-02 06:33S 42°54' E 147°20'0 0.0
2015-Jan-02 05:21S 42°54' E 147°20'3 3.4
2015-Jan-02 04:24S 42°56' E 147°23'1 1.0
2015-Jan-02 03:30S 42°55' E 147°22'1 1.3
2015-Jan-02 02:31S 42°54' E 147°22'1 1.4
2015-Jan-02 01:32S 42°54' E 147°20'0 0.0
2015-Jan-02 00:28S 42°54' E 147°20'0 0.0
2015-Jan-01 23:23S 42°54' E 147°20'0 0.0
2015-Jan-01 22:29S 42°54' E 147°20'0 0.0
2015-Jan-01 21:32S 42°54' E 147°20'0 0.0
2015-Jan-01 03:22S 42°54' E 147°20'1 0.0
2014-Dec-30 06:25S 42°53' E 147°20'0 0.0
2014-Dec-30 05:32S 42°53' E 147°20'0 0.0
2014-Dec-30 01:22S 42°53' E 147°20'0 0.0
2014-Dec-30 00:28S 42°53' E 147°20'0 0.0
2014-Dec-29 23:22S 42°53' E 147°20'0 0.0
2014-Dec-29 22:25S 42°53' E 147°20'0 0.0
2014-Dec-29 21:28S 42°53' E 147°20'0 0.0
2014-Dec-29 01:09S 42°53' E 147°20'0 0.0
2014-Dec-29 00:27S 42°53' E 147°20'0 0.0
2014-Dec-28 23:29S 42°53' E 147°20'0 0.0
2014-Dec-28 22:32S 42°53' E 147°20'0 0.0
2014-Dec-28 21:31S 42°53' E 147°20'0 0.3
2014-Dec-28 20:33S 42°53' E 147°20'7 6.3
2014-Dec-28 19:29S 42°59' E 147°23'8 8.1
2014-Dec-28 18:32S 43°06' E 147°29'10 9.7
2014-Dec-28 17:29S 43°13' E 147°39'9 8.5
2014-Dec-28 16:24S 43°17' E 147°51'3210.5
2014-Dec-28 13:22S 42°51' E 148°17'  

Dump ship's entire track history